Flight Track Log - Related Links

Times and Time Zones

All times are in EDT time to prevent confusion due to time zone crossing. See the N988QC flight status page for this flight to view local times or setup timezone preferences in your user account.


Time Position Orientation Groundspeed Altitude Reporting Facility
EDT Latitude Longitude Course Direction KTS MPH feet Rate Location/Type
Fri 10:19:51 PM 42.3667 -71.0167 144° Southeast 149 171 900  Level KA90
Fri 10:21:09 PM 42.3167 -70.9667 144° Southeast 242 278 5,800 3,565 Climbing KA90
Fri 10:22:09 PM 42.3236 -70.8672 85° East 281 323 9,100 2,975 Climbing Boston Center
Fri 10:23:10 PM 42.3119 -70.7539 98° East 324 373 11,800 2,430 Climbing Boston Center
Fri 10:24:10 PM 42.2353 -70.7150 159° South 341 392 14,000 2,975 Climbing Boston Center
Fri 10:25:11 PM 42.2017 -70.8369 250° West 328 377 17,800 2,951 Climbing Boston Center
Fri 10:26:12 PM 42.1775 -70.9444 253° West 329 379 20,000 1,869 Climbing Boston Center
Fri 10:27:13 PM 42.1489 -71.0769 254° West 370 426 21,600 1,869 Climbing Boston Center
Fri 10:28:14 PM 42.1172 -71.2103 252° West 377 434 23,800 2,182 Climbing Boston Center
Fri 10:29:14 PM 42.0911 -71.3494 256° West 384 442 26,000 2,132 Climbing Boston Center
Fri 10:30:15 PM 42.0617 -71.4883 254° West 386 444 28,100 1,967 Climbing Boston Center
Fri 10:31:16 PM 42.0314 -71.6308 254° West 392 451 30,000 1,869 Climbing Boston Center
Fri 10:32:17 PM 42.0011 -71.7700 254° West 392 451 31,900 1,091 Climbing Boston Center
Fri 10:33:17 PM 41.9700 -71.9156 254° West 398 458 32,200 992 Climbing Boston Center
Fri 10:34:18 PM 41.9378 -72.0633 254° West 409 471 33,900 1,967 Climbing Boston Center
Fri 10:35:19 PM 41.8981 -72.2256 252° West 386 444 36,200 1,869 Climbing Boston Center
Fri 10:36:20 PM 41.8408 -72.3408 236° Southwest 372 428 37,700 893 Climbing Boston Center
Fri 10:37:20 PM 41.7850 -72.4606 238° Southwest 377 434 38,000 149 Climbing Boston Center
Fri 10:38:21 PM 41.7250 -72.5856 237° Southwest 395 455 38,000  Level Boston Center
Fri 10:39:22 PM 41.6644 -72.7100 237° Southwest 398 458 38,000  Level Boston Center
Fri 10:40:22 PM 41.6028 -72.8372 237° Southwest 403 464 38,000  Level Boston Center
Fri 10:41:23 PM 41.5414 -72.9639 237° Southwest 406 467 38,000  Level Boston Center
Fri 10:42:24 PM 41.4847 -73.0789 237° Southwest 407 468 38,000 443 Level Boston Center
Fri 10:43:25 PM 41.4239 -73.2031 237° Southwest 407 468 38,900 942 Climbing Boston Center
Fri 10:44:25 PM 41.3656 -73.3225 237° Southwest 393 452 39,900 545 Climbing Boston Center
Fri 10:45:26 PM 41.2967 -73.4644 237° Southwest 386 444 40,000 49 Climbing Boston Center
Fri 10:46:27 PM 41.2372 -73.5839 237° Southwest 386 444 40,000  Level Boston Center
Fri 10:47:28 PM 41.1767 -73.7028 236° Southwest 388 447 40,000  Level Boston Center
Fri 10:48:28 PM 41.1178 -73.8211 237° Southwest 388 447 40,000  Level Boston Center
Fri 10:49:29 PM 41.0589 -73.9389 236° Southwest 387 445 40,000  Level Boston Center
Fri 10:50:30 PM 40.9981 -74.0586 236° Southwest 390 449 40,000  Level Boston Center
Fri 10:51:31 PM 40.9381 -74.1783 236° Southwest 390 449 40,000  Level Boston Center
Fri 10:52:31 PM 40.8761 -74.2986 236° Southwest 393 452 40,000  Level Boston Center
Fri 10:53:32 PM 40.8100 -74.4297 236° Southwest 396 456 40,000  Level Boston Center
Fri 10:54:33 PM 40.7478 -74.5511 236° Southwest 398 458 40,000  Level Boston Center
Fri 10:55:33 PM 40.6856 -74.6708 236° Southwest 398 458 40,000  Level Boston Center
Fri 10:56:34 PM 40.6231 -74.7928 236° Southwest 402 463 40,000  Level Boston Center
Fri 10:57:35 PM 40.5608 -74.9131 236° Southwest 401 461 40,000  Level Boston Center
Fri 10:58:35 PM 40.4936 -75.0281 232° Southwest 401 461 40,000  Level Boston Center
Fri 10:59:36 PM 40.4258 -75.1408 232° Southwest 399 459 40,000  Level Boston Center
Fri 11:00:53 PM 40.3353 -75.2964 233° Southwest 406 467 40,000  Level New York Center
Fri 11:01:53 PM 40.2683 -75.4089 232° Southwest 401 461 40,000  Level New York Center
Fri 11:02:51 PM 40.2014 -75.5186 231° Southwest 401 461 40,000  Level New York Center
Fri 11:03:52 PM 40.1344 -75.6281 231° Southwest 401 461 40,000  Level New York Center
Fri 11:04:53 PM 40.0672 -75.7400 232° Southwest 401 461 40,000  Level New York Center
Fri 11:05:53 PM 40.0019 -75.8519 233° Southwest 401 461 40,000  Level New York Center
Fri 11:06:54 PM 39.9325 -75.9606 230° Southwest 401 461 40,000  Level New York Center
Fri 11:07:53 PM 39.8672 -76.0694 232° Southwest 401 461 40,000  Level New York Center
Fri 11:09:33 PM 39.7586 -76.2375 230° Southwest 387 445 40,000  Level Washington Center
Fri 11:10:35 PM 39.6922 -76.3461 232° Southwest 387 445 40,000  Level Washington Center
Fri 11:11:35 PM 39.6242 -76.4550 231° Southwest 387 445 40,000  Level Washington Center
Fri 11:12:37 PM 39.5503 -76.5739 231° Southwest 388 447 40,000  Level Washington Center
Fri 11:13:37 PM 39.4817 -76.6811 230° Southwest 388 447 40,000  Level Washington Center
Fri 11:14:40 PM 39.4133 -76.7900 231° Southwest 388 447 40,000  Level Washington Center
Fri 11:15:42 PM 39.3444 -76.8986 231° Southwest 389 448 40,000  Level Washington Center
Fri 11:16:43 PM 39.2758 -77.0083 231° Southwest 390 449 40,000  Level Washington Center
Fri 11:17:42 PM 39.2069 -77.1183 231° Southwest 391 450 40,000  Level Washington Center
Fri 11:18:46 PM 39.1231 -77.2475 230° Southwest 392 451 40,000  Level Washington Center
Fri 11:19:47 PM 39.0539 -77.3553 230° Southwest 391 450 40,000  Level Washington Center
Fri 11:20:49 PM 38.9853 -77.4639 231° Southwest 391 450 40,000  Level Washington Center
Fri 11:21:49 PM 38.9214 -77.5617 230° Southwest 391 450 40,000  Level Washington Center
Fri 11:22:52 PM 38.8531 -77.6678 230° Southwest 391 450 40,000  Level Washington Center
Fri 11:23:52 PM 38.7692 -77.7944 230° Southwest 393 452 40,000  Level Washington Center
Fri 11:24:54 PM 38.7014 -77.9014 231° Southwest 388 447 40,000  Level Washington Center
Fri 11:25:55 PM 38.6300 -78.0097 230° Southwest 392 451 40,000  Level Washington Center
Fri 11:26:56 PM 38.5583 -78.1178 230° Southwest 398 458 40,000  Level Washington Center
Fri 11:27:58 PM 38.4881 -78.2256 230° Southwest 398 458 40,000  Level Washington Center
Fri 11:28:59 PM 38.4161 -78.3328 229° Southwest 398 458 40,000  Level Washington Center
Fri 11:30:00 PM 38.3450 -78.4428 231° Southwest 400 460 40,000  Level Washington Center
Fri 11:31:00 PM 38.2694 -78.5553 229° Southwest 401 461 40,000  Level Washington Center
Fri 11:32:00 PM 38.1983 -78.6625 230° Southwest 403 464 40,000 50 Level Washington Center
Fri 11:33:01 PM 38.1125 -78.7883 229° Southwest 406 467 40,100  Climbing Washington Center
Fri 11:34:04 PM 38.0411 -78.8958 230° Southwest 406 467 40,000 -49 Descending Washington Center
Fri 11:35:03 PM 37.9697 -79.0019 230° Southwest 407 468 40,000  Level Washington Center
Fri 11:36:04 PM 37.9006 -79.1064 230° Southwest 402 463 40,000  Level Washington Center
Fri 11:37:07 PM 37.8261 -79.2075 227° Southwest 408 470 40,000  Level Washington Center
Fri 11:38:06 PM 37.7394 -79.3292 228° Southwest 399 459 40,000  Level Washington Center
Fri 11:39:09 PM 37.6667 -79.4267 227° Southwest 393 452 40,000  Level Washington Center
Fri 11:40:10 PM 37.5925 -79.5303 228° Southwest 397 457 40,000  Level Washington Center
Fri 11:41:10 PM 37.5192 -79.6308 227° Southwest 393 452 40,000  Level Washington Center
Fri 11:42:12 PM 37.4475 -79.7306 228° Southwest 389 448 40,000  Level Washington Center
Fri 11:43:13 PM 37.3744 -79.8314 228° Southwest 388 447 40,000  Level Washington Center
Fri 11:44:14 PM 37.3039 -79.9283 228° Southwest 385 443 40,000  Level Washington Center
Fri 11:45:15 PM 37.2189 -80.0444 227° Southwest 386 444 40,000  Level Washington Center
Fri 11:46:14 PM 37.1464 -80.1406 227° Southwest 390 449 40,000  Level Washington Center
Fri 11:47:05 PM 37.0833 -80.2247 227° Southwest 416 479 40,000  Level Atlanta Center
Fri 11:48:05 PM 37.0072 -80.3244 226° Southwest 410 472 40,000  Level Atlanta Center
Fri 11:49:05 PM 36.9250 -80.4375 228° Southwest 405 466 40,000  Level Atlanta Center
Fri 11:50:05 PM 36.8489 -80.5394 227° Southwest 405 466 40,000 50 Level Atlanta Center
Fri 11:51:05 PM 36.7703 -80.6414 226° Southwest 405 466 40,100  Climbing Atlanta Center
Fri 11:52:05 PM 36.6939 -80.7456 228° Southwest 405 466 40,000 -50 Descending Atlanta Center
Fri 11:53:05 PM 36.6194 -80.8444 227° Southwest 405 466 40,000  Level Atlanta Center
Fri 11:54:05 PM 36.5406 -80.9458 226° Southwest 405 466 40,000  Level Atlanta Center
Fri 11:55:05 PM 36.4619 -81.0444 225° Southwest 410 472 40,000  Level Atlanta Center
Fri 11:56:05 PM 36.3786 -81.1456 224° Southwest 410 472 40,000  Level Atlanta Center
Fri 11:57:05 PM 36.2997 -81.2436 225° Southwest 410 472 40,000  Level Atlanta Center
Fri 11:58:05 PM 36.2206 -81.3389 224° Southwest 405 466 40,000  Level Atlanta Center
Fri 11:59:05 PM 36.1392 -81.4394 225° Southwest 405 466 40,000  Level Atlanta Center
Sat 12:00:05 AM 36.0578 -81.5369 224° Southwest 405 466 40,000  Level Atlanta Center
Sat 12:01:05 AM 35.9806 -81.6344 226° Southwest 405 466 40,000  Level Atlanta Center
Sat 12:02:05 AM 35.8969 -81.7317 223° Southwest 405 466 40,000  Level Atlanta Center
Sat 12:03:05 AM 35.8172 -81.8311 225° Southwest 410 472 40,000  Level Atlanta Center
Sat 12:04:05 AM 35.7356 -81.9281 224° Southwest 405 466 40,000  Level Atlanta Center
Sat 12:05:05 AM 35.6639 -82.0144 224° Southwest 405 466 40,000 -450 Level Atlanta Center
Sat 12:06:05 AM 35.5819 -82.1083 223° Southwest 405 466 39,100 -1,350 Descending Atlanta Center
Sat 12:07:05 AM 35.4981 -82.2122 225° Southwest 415 478 37,300 -1,750 Descending Atlanta Center
Sat 12:08:05 AM 35.4119 -82.3111 223° Southwest 422 486 35,600 -1,600 Descending Atlanta Center
Sat 12:09:05 AM 35.3258 -82.4147 224° Southwest 427 491 34,100 -800 Descending Atlanta Center
Sat 12:10:05 AM 35.2394 -82.5156 224° Southwest 427 491 34,000 -700 Descending Atlanta Center
Sat 12:11:05 AM 35.1489 -82.6189 223° Southwest 433 498 32,700 -1,550 Descending Atlanta Center
Sat 12:12:05 AM 35.0625 -82.7269 226° Southwest 440 506 30,900 -2,050 Descending Atlanta Center
Sat 12:13:05 AM 34.9778 -82.8297 225° Southwest 445 512 28,600 -2,350 Descending Atlanta Center
Sat 12:14:05 AM 34.8828 -82.9322 222° Southwest 451 519 26,200 -2,250 Descending Atlanta Center
Sat 12:15:05 AM 34.7939 -83.0297 222° Southwest 441 507 24,100 -2,000 Descending Atlanta Center
Sat 12:16:05 AM 34.7050 -83.1317 223° Southwest 435 501 22,200 -2,000 Descending Atlanta Center
Sat 12:17:05 AM 34.6097 -83.2286 220° Southwest 442 509 20,100 -2,600 Descending Atlanta Center
Sat 12:18:05 AM 34.5164 -83.3353 223° Southwest 436 502 17,000 -2,950 Descending Atlanta Center
Sat 12:19:05 AM 34.4333 -83.4267 222° Southwest 429 494 14,200 -2,600 Descending Atlanta Center
Sat 12:20:05 AM 34.3628 -83.5053 223° Southwest 382 440 11,800 -2,250 Descending Atlanta Center
Sat 12:21:05 AM 34.2942 -83.5761 220° Southwest 335 386 9,700 -1,750 Descending Atlanta Center
Sat 12:22:05 AM 34.2278 -83.6519 223° Southwest 330 380 8,300 -1,850 Descending Atlanta Center
Sat 12:23:05 AM 34.1592 -83.7275 222° Southwest 330 380 6,000 -1,150 Descending Atlanta Center
Sat 12:24:05 AM 34.0925 -83.8031 223° Southwest 330 380 6,000  Level Atlanta Center
Sat 12:25:05 AM 34.0383 -83.8633 223° Southwest 330 380 6,000  Level Atlanta Center
Sat 12:33:00 AM 33.9667 -83.9500 203° Southwest  Level FlightAware Approximate
Sat 12:40:00 AM 33.9781 -83.9624 203° Southwest  Level Estimated
Sat 12:41:00 AM 33.9781 -83.9624 203° Southwest  Level Estimated
Sat 12:42:00 AM 33.9781 -83.9624 203° Southwest  Level Estimated
Sat 12:43:00 AM 33.9781 -83.9624 203° Southwest  Level Estimated

Login

Don't have an account? Register now (free) for customized features, flight alerts, and more!